createdAt,value
2022-12-11T00:01:29.091Z,98248.81
2022-12-11T00:03:55.591Z,98259.25
2022-12-11T00:06:23.858Z,98239.50
2022-12-11T00:08:54.991Z,98220.16
2022-12-11T00:11:22.914Z,98224.28
2022-12-11T00:13:49.691Z,98245.91
2022-12-11T00:16:16.275Z,98238.81
2022-12-11T00:18:42.847Z,98228.75
2022-12-11T00:21:13.195Z,98219.91
2022-12-11T00:23:40.185Z,98211.81
2022-12-11T00:26:12.674Z,98220.31
2022-12-11T00:28:39.305Z,98216.16
2022-12-11T00:31:07.806Z,98210.47
2022-12-11T00:33:34.487Z,98214.44
2022-12-11T00:36:01.334Z,98212.69
2022-12-11T00:38:28.610Z,98212.28
2022-12-11T00:40:59.442Z,98208.53
2022-12-11T00:43:26.036Z,98199.28
2022-12-11T00:45:52.689Z,98202.69
2022-12-11T00:48:19.419Z,98200.13
2022-12-11T00:50:46.484Z,98209.56
2022-12-11T00:53:13.075Z,98209.22
2022-12-11T00:55:41.501Z,98215.97
2022-12-11T00:58:08.486Z,98209.22
2022-12-11T01:00:35.734Z,98229.16
2022-12-11T01:03:02.451Z,98216.53
2022-12-11T01:05:29.095Z,98226.38
2022-12-11T01:07:55.716Z,98211.38
2022-12-11T01:10:25.511Z,98215.34
2022-12-11T01:12:58.032Z,98220.09
2022-12-11T01:15:27.499Z,98226.66
2022-12-11T01:17:54.524Z,98234.66
2022-12-11T01:20:22.048Z,98231.59
2022-12-11T01:22:51.814Z,98245.00
2022-12-11T01:25:18.453Z,98236.69
2022-12-11T01:27:45.048Z,98238.13
2022-12-11T01:30:13.322Z,98237.97
2022-12-11T01:32:39.897Z,98242.16
2022-12-11T01:35:08.500Z,98253.59
2022-12-11T01:37:35.287Z,98249.66
2022-12-11T01:40:02.205Z,98243.38
2022-12-11T01:42:29.656Z,98242.78
2022-12-11T01:45:27.046Z,98243.41
2022-12-11T01:48:00.050Z,98235.06
2022-12-11T01:50:28.603Z,98250.91
2022-12-11T01:52:55.268Z,98250.16
2022-12-11T01:55:22.143Z,98249.41
2022-12-11T01:57:50.997Z,98257.31
2022-12-11T02:00:18.104Z,98257.50
2022-12-11T02:02:45.376Z,98263.63
2022-12-11T02:05:12.825Z,98254.78
2022-12-11T02:07:56.931Z,98254.94
2022-12-11T02:10:38.312Z,98257.72
2022-12-11T02:13:30.845Z,98247.47
2022-12-11T02:16:10.022Z,98265.47
2022-12-11T02:18:48.383Z,98268.44
2022-12-11T02:21:37.850Z,98267.47
2022-12-11T02:24:32.496Z,98268.88
2022-12-11T02:27:14.297Z,98268.09
2022-12-11T02:29:56.111Z,98264.38
2022-12-11T02:32:56.262Z,98270.09
2022-12-11T02:35:35.095Z,98255.91
2022-12-11T02:38:11.756Z,98253.34
2022-12-11T02:40:40.912Z,98249.41
2022-12-11T02:43:11.543Z,98261.47
2022-12-11T02:45:39.794Z,98260.69
2022-12-11T02:48:08.381Z,98257.50
2022-12-11T02:50:38.261Z,98258.69
2022-12-11T02:53:06.688Z,98255.34
2022-12-11T02:55:37.453Z,98255.72
2022-12-11T02:58:17.423Z,98253.97
2022-12-11T03:00:47.287Z,98246.66
2022-12-11T03:03:14.061Z,98246.09
2022-12-11T03:05:41.972Z,98238.59
2022-12-11T03:08:08.866Z,98237.22
2022-12-11T03:10:35.490Z,98247.28
2022-12-11T03:13:03.091Z,98242.34
2022-12-11T03:15:39.827Z,98242.53
2022-12-11T03:18:28.187Z,98240.16
2022-12-11T03:21:18.713Z,98233.47
2022-12-11T03:24:15.181Z,98228.94
2022-12-11T03:26:56.345Z,98234.28
2022-12-11T03:29:26.803Z,98231.28
2022-12-11T03:32:08.564Z,98238.63
2022-12-11T03:34:44.218Z,98234.06
2022-12-11T03:37:14.006Z,98228.75
2022-12-11T03:39:47.235Z,98211.56
2022-12-11T03:42:16.613Z,98231.91
2022-12-11T03:44:49.605Z,98242.94
2022-12-11T03:47:20.717Z,98237.81
2022-12-11T03:49:48.629Z,98243.31
2022-12-11T03:52:17.327Z,98244.12
2022-12-11T03:54:49.030Z,98243.91
2022-12-11T03:57:20.724Z,98241.16
2022-12-11T03:59:47.567Z,98234.47
2022-12-11T04:02:14.141Z,98234.44
2022-12-11T04:04:42.342Z,98241.34
2022-12-11T04:07:09.433Z,98236.03
2022-12-11T04:09:36.493Z,98246.69
2022-12-11T04:12:03.103Z,98248.06
2022-12-11T04:14:48.773Z,98244.50
2022-12-11T04:17:38.318Z,98252.00
2022-12-11T04:20:24.685Z,98258.31
2022-12-11T04:23:10.207Z,98263.03
2022-12-11T04:25:37.062Z,98262.84
2022-12-11T04:28:03.717Z,98256.91
2022-12-11T04:30:34.173Z,98272.09
2022-12-11T04:33:01.551Z,98268.34
2022-12-11T04:35:28.587Z,98281.75
2022-12-11T04:37:55.174Z,98284.50
2022-12-11T04:40:22.262Z,98289.81
2022-12-11T04:42:48.954Z,98288.84
2022-12-11T04:45:15.777Z,98297.72
2022-12-11T04:47:42.402Z,98315.44
2022-12-11T04:50:11.099Z,98322.16
2022-12-11T04:52:37.759Z,98320.56
2022-12-11T04:55:06.292Z,98318.19
2022-12-11T04:57:32.898Z,98317.81
2022-12-11T05:00:00.005Z,98323.31
2022-12-11T05:02:27.058Z,98322.50
2022-12-11T05:04:53.861Z,98331.59
2022-12-11T05:07:20.464Z,98324.87
2022-12-11T05:09:47.043Z,98333.19
2022-12-11T05:12:13.607Z,98337.91
2022-12-11T05:14:40.130Z,98340.47
2022-12-11T05:17:06.648Z,98337.50
2022-12-11T05:19:33.217Z,98330.81
2022-12-11T05:21:59.770Z,98336.34
2022-12-11T05:24:26.322Z,98342.81
2022-12-11T05:26:52.924Z,98339.47
2022-12-11T05:29:19.448Z,98351.69
2022-12-11T05:31:46.070Z,98346.59
2022-12-11T05:34:12.733Z,98342.62
2022-12-11T05:36:39.341Z,98349.16
2022-12-11T05:39:05.986Z,98353.88
2022-12-11T05:41:33.892Z,98352.09
2022-12-11T05:44:00.676Z,98343.44
2022-12-11T05:46:29.508Z,98344.22
2022-12-11T05:48:58.351Z,98342.81
2022-12-11T05:51:25.504Z,98346.97
2022-12-11T05:53:53.610Z,98343.81
2022-12-11T05:56:23.060Z,98350.13
2022-12-11T05:58:50.294Z,98360.16
2022-12-11T06:01:20.727Z,98358.41
2022-12-11T06:03:47.639Z,98374.75
2022-12-11T06:06:15.243Z,98379.31
2022-12-11T06:08:42.035Z,98371.81
2022-12-11T06:11:08.764Z,98377.91
2022-12-11T06:13:36.044Z,98382.25
2022-12-11T06:16:04.201Z,98384.81
2022-12-11T06:18:31.225Z,98401.81
2022-12-11T06:20:57.963Z,98409.88
2022-12-11T06:23:24.520Z,98412.44
2022-12-11T06:25:51.068Z,98416.59
2022-12-11T06:28:17.590Z,98417.56
2022-12-11T06:30:44.982Z,98427.41
2022-12-11T06:33:11.580Z,98425.84
2022-12-11T06:35:42.082Z,98433.13
2022-12-11T06:38:10.830Z,98440.03
2022-12-11T06:40:38.301Z,98432.94
2022-12-11T06:43:05.078Z,98438.87
2022-12-11T06:45:31.663Z,98447.53
2022-12-11T06:47:58.726Z,98452.47
2022-12-11T06:50:25.337Z,98457.03
2022-12-11T06:52:52.037Z,98466.69
2022-12-11T06:55:18.615Z,98462.16
2022-12-11T06:57:45.160Z,98471.22
2022-12-11T07:00:12.203Z,98468.06
2022-12-11T07:02:38.799Z,98474.00
2022-12-11T07:05:05.837Z,98480.88
2022-12-11T07:07:32.793Z,98471.81
2022-12-11T07:10:04.213Z,98461.78
2022-12-11T07:12:34.546Z,98459.22
2022-12-11T07:15:03.464Z,98459.25
2022-12-11T07:17:30.454Z,98467.50
2022-12-11T07:19:57.118Z,98469.47
2022-12-11T07:22:23.794Z,98467.31
2022-12-11T07:24:50.379Z,98469.53
2022-12-11T07:27:16.991Z,98467.00
2022-12-11T07:29:43.590Z,98472.69
2022-12-11T07:32:10.763Z,98486.34
2022-12-11T07:34:37.700Z,98477.44
2022-12-11T07:37:04.538Z,98477.88
2022-12-11T07:39:31.185Z,98482.56
2022-12-11T07:41:57.759Z,98495.84
2022-12-11T07:44:27.592Z,98500.19
2022-12-11T07:46:56.506Z,98521.13
2022-12-11T07:49:23.207Z,98519.94
2022-12-11T07:51:49.909Z,98516.00
2022-12-11T07:54:17.047Z,98529.78
2022-12-11T07:56:45.696Z,98543.22
2022-12-11T07:59:16.703Z,98555.69
2022-12-11T08:01:45.732Z,98560.22
2022-12-11T08:04:15.586Z,98575.19
2022-12-11T08:06:42.787Z,98576.94
2022-12-11T08:09:15.972Z,98565.72
2022-12-11T08:11:49.401Z,98583.69
2022-12-11T08:14:15.990Z,98575.03
2022-12-11T08:16:44.199Z,98581.53
2022-12-11T08:19:14.905Z,98595.00
2022-12-11T08:21:41.451Z,98598.97
2022-12-11T08:24:09.142Z,98601.72
2022-12-11T08:26:35.970Z,98609.19
2022-12-11T08:29:03.350Z,98599.94
2022-12-11T08:31:30.183Z,98601.16
2022-12-11T08:33:57.778Z,98597.84
2022-12-11T08:36:25.281Z,98597.44
2022-12-11T08:38:53.818Z,98606.09
2022-12-11T08:41:24.186Z,98634.53
2022-12-11T08:43:54.902Z,98628.22
2022-12-11T08:46:24.045Z,98640.81
2022-12-11T08:48:51.047Z,98620.53
2022-12-11T08:51:23.618Z,98637.88
2022-12-11T08:53:51.440Z,98638.31
2022-12-11T08:56:20.257Z,98643.25
2022-12-11T08:58:50.036Z,98652.75
2022-12-11T09:01:21.648Z,98653.47
2022-12-11T09:03:49.554Z,98654.47
2022-12-11T09:06:18.703Z,98651.47
2022-12-11T09:08:52.649Z,98658.41
2022-12-11T09:11:23.474Z,98661.75
2022-12-11T09:13:53.020Z,98658.56
2022-12-11T09:16:21.805Z,98656.84
2022-12-11T09:18:50.611Z,98661.03
2022-12-11T09:21:19.967Z,98655.91
2022-12-11T09:23:47.186Z,98659.44
2022-12-11T09:26:17.837Z,98654.50
2022-12-11T09:28:46.997Z,98661.81
2022-12-11T09:31:16.683Z,98662.19
2022-12-11T09:33:44.280Z,98665.53
2022-12-11T09:36:12.026Z,98663.41
2022-12-11T09:38:39.134Z,98664.97
2022-12-11T09:41:40.382Z,98662.28
2022-12-11T09:44:25.226Z,98652.59
2022-12-11T09:46:52.432Z,98647.62
2022-12-11T09:49:37.636Z,98650.56
2022-12-11T09:52:31.425Z,98632.25
2022-12-11T09:55:01.645Z,98640.97
2022-12-11T09:58:05.288Z,98650.25
2022-12-11T10:01:02.184Z,98642.38
2022-12-11T10:04:14.823Z,98642.94
2022-12-11T10:07:20.785Z,98636.25
2022-12-11T10:09:50.461Z,98638.25
2022-12-11T10:12:44.864Z,98639.78
2022-12-11T10:15:26.664Z,98649.69
2022-12-11T10:18:02.915Z,98644.50
2022-12-11T10:20:42.095Z,98655.78
2022-12-11T10:23:16.783Z,98669.00
2022-12-11T10:25:57.040Z,98676.88
2022-12-11T10:28:23.711Z,98682.16
2022-12-11T10:31:15.782Z,98694.38
2022-12-11T10:33:58.806Z,98684.88
2022-12-11T10:36:31.240Z,98666.72
2022-12-11T10:38:58.465Z,98677.19
2022-12-11T10:41:39.661Z,98676.22
2022-12-11T10:44:17.891Z,98678.56
2022-12-11T10:46:49.460Z,98687.88
2022-12-11T10:49:30.572Z,98694.53
2022-12-11T10:51:58.282Z,98702.50
2022-12-11T10:54:43.913Z,98703.44
2022-12-11T10:57:14.291Z,98710.16
2022-12-11T10:59:45.541Z,98706.56
2022-12-11T11:02:30.611Z,98713.13
2022-12-11T11:05:00.033Z,98711.53
2022-12-11T11:07:30.225Z,98700.09
2022-12-11T11:10:11.753Z,98697.44
2022-12-11T11:12:50.090Z,98705.59
2022-12-11T11:15:25.104Z,98706.37
2022-12-11T11:17:56.006Z,98687.84
2022-12-11T11:20:29.490Z,98688.97
2022-12-11T11:23:01.614Z,98681.69
2022-12-11T11:25:31.007Z,98686.88
2022-12-11T11:28:06.431Z,98697.75
2022-12-11T11:30:39.700Z,98696.53
2022-12-11T11:33:15.866Z,98701.72
2022-12-11T11:35:56.138Z,98719.53
2022-12-11T11:38:28.089Z,98713.03
2022-12-11T11:41:07.673Z,98718.38
2022-12-11T11:44:07.046Z,98717.47
2022-12-11T11:46:43.447Z,98724.22
2022-12-11T11:49:13.165Z,98725.94
2022-12-11T11:51:52.626Z,98735.09
2022-12-11T11:54:36.134Z,98737.66
2022-12-11T11:57:17.638Z,98734.63
2022-12-11T11:59:52.491Z,98745.44
2022-12-11T12:02:19.987Z,98738.16
2022-12-11T12:04:47.773Z,98741.41
2022-12-11T12:07:23.119Z,98746.16
2022-12-11T12:09:58.875Z,98750.72
2022-12-11T12:12:41.051Z,98759.00
2022-12-11T12:15:28.780Z,98753.84
2022-12-11T12:17:58.653Z,98752.22
2022-12-11T12:20:48.870Z,98758.09
2022-12-11T12:23:22.682Z,98767.63
2022-12-11T12:26:01.593Z,98754.19
2022-12-11T12:28:56.082Z,98764.66
2022-12-11T12:31:55.673Z,98752.84
2022-12-11T12:34:30.766Z,98755.00
2022-12-11T12:37:01.820Z,98761.78
2022-12-11T12:40:01.749Z,98767.84
2022-12-11T12:42:47.049Z,98763.56
2022-12-11T12:45:41.038Z,98761.50
2022-12-11T12:48:09.335Z,98771.25
2022-12-11T12:50:44.717Z,98769.50
2022-12-11T12:53:19.396Z,98773.31
2022-12-11T12:55:50.499Z,98770.97
2022-12-11T12:58:29.353Z,98775.50
2022-12-11T13:01:08.767Z,98781.22
2022-12-11T13:03:51.028Z,98795.84
2022-12-11T13:06:34.586Z,98810.88
2022-12-11T13:09:30.644Z,98819.72
2022-12-11T13:12:00.394Z,98829.38
2022-12-11T13:14:32.629Z,98837.25
2022-12-11T13:17:22.205Z,98849.69
2022-12-11T13:19:53.035Z,98839.47
2022-12-11T13:22:24.726Z,98834.75
2022-12-11T13:25:02.036Z,98834.53
2022-12-11T13:27:44.595Z,98842.19
2022-12-11T13:30:14.203Z,98839.75
2022-12-11T13:32:55.557Z,98842.69
2022-12-11T13:35:22.142Z,98839.84
2022-12-11T13:37:52.120Z,98852.06
2022-12-11T13:40:26.331Z,98853.00
2022-12-11T13:42:56.666Z,98862.25
2022-12-11T13:45:29.951Z,98857.66
2022-12-11T13:48:00.409Z,98859.28
2022-12-11T13:50:34.542Z,98859.50
2022-12-11T13:53:04.981Z,98869.34
2022-12-11T13:55:34.185Z,98870.31
2022-12-11T13:58:01.251Z,98865.37
2022-12-11T14:00:32.960Z,98867.38
2022-12-11T14:03:07.461Z,98877.19
2022-12-11T14:05:35.182Z,98883.34
2022-12-11T14:08:11.070Z,98880.87
2022-12-11T14:10:39.075Z,98888.59
2022-12-11T14:13:26.453Z,98894.13
2022-12-11T14:15:54.193Z,98901.75
2022-12-11T14:18:27.355Z,98896.44
2022-12-11T14:20:58.908Z,98899.19
2022-12-11T14:23:27.953Z,98912.25
2022-12-11T14:26:00.551Z,98911.09
2022-12-11T14:28:37.884Z,98921.97
2022-12-11T14:31:08.058Z,98917.03
2022-12-11T14:33:43.554Z,98929.28
2022-12-11T14:36:11.217Z,98939.44
2022-12-11T14:38:46.210Z,98938.31
2022-12-11T14:41:39.710Z,98936.56
2022-12-11T14:44:12.617Z,98943.63
2022-12-11T14:46:42.964Z,98946.53
2022-12-11T14:49:43.707Z,98945.75
2022-12-11T14:52:15.312Z,98948.16
2022-12-11T14:54:51.232Z,98940.41
2022-12-11T14:57:24.846Z,98943.75
2022-12-11T14:59:55.466Z,98947.13
2022-12-11T15:02:22.019Z,98946.12
2022-12-11T15:05:12.479Z,98952.97
2022-12-11T15:07:40.367Z,98957.47
2022-12-11T15:10:07.295Z,98961.97
2022-12-11T15:12:34.952Z,98967.91
2022-12-11T15:15:05.967Z,98959.78
2022-12-11T15:17:34.688Z,98961.56
2022-12-11T15:20:08.858Z,98972.16
2022-12-11T15:22:36.071Z,98973.56
2022-12-11T15:25:03.140Z,98967.62
2022-12-11T15:27:39.875Z,98982.59
2022-12-11T15:30:19.775Z,98980.44
2022-12-11T15:32:47.472Z,98977.19
2022-12-11T15:35:25.760Z,98994.34
2022-12-11T15:37:54.634Z,98987.87
2022-12-11T15:40:21.542Z,98989.56
2022-12-11T15:42:48.707Z,98986.22
2022-12-11T15:45:19.903Z,98980.56
2022-12-11T15:47:48.111Z,98981.69
2022-12-11T15:50:21.738Z,98983.38
2022-12-11T15:52:49.543Z,98988.66
2022-12-11T15:55:16.750Z,98981.25
2022-12-11T15:57:46.838Z,98991.56
2022-12-11T16:00:15.698Z,98987.87
2022-12-11T16:02:42.703Z,98986.63
2022-12-11T16:05:09.785Z,98993.78
2022-12-11T16:07:38.465Z,98991.56
2022-12-11T16:10:07.180Z,98998.03
2022-12-11T16:12:33.735Z,99001.38
2022-12-11T16:15:00.293Z,99000.78
2022-12-11T16:17:26.924Z,99011.81
2022-12-11T16:19:54.159Z,99007.75
2022-12-11T16:22:20.721Z,99009.87
2022-12-11T16:24:47.413Z,99014.72
2022-12-11T16:27:17.324Z,99018.53
2022-12-11T16:29:47.019Z,99024.19
2022-12-11T16:32:13.598Z,99014.28
2022-12-11T16:36:28.523Z,99011.91
2022-12-11T16:39:55.032Z,99017.37
2022-12-11T16:42:21.642Z,99023.63
2022-12-11T16:44:48.605Z,99023.63
2022-12-11T16:47:15.177Z,99032.28
2022-12-11T16:49:43.189Z,99027.88
2022-12-11T16:52:09.785Z,99028.13
2022-12-11T16:54:36.352Z,99023.22
2022-12-11T16:57:02.911Z,99014.69
2022-12-11T16:59:35.155Z,99027.44
2022-12-11T17:02:03.873Z,99020.81
2022-12-11T17:04:30.519Z,99027.50
2022-12-11T17:06:57.112Z,99032.63
2022-12-11T17:09:23.701Z,99024.94
2022-12-11T17:11:50.286Z,99028.47
2022-12-11T17:14:16.889Z,99020.63
2022-12-11T17:16:43.446Z,99028.69
2022-12-11T17:19:10.089Z,99025.28
2022-12-11T17:21:36.679Z,99016.97
2022-12-11T17:24:03.320Z,99022.00
2022-12-11T17:26:29.956Z,99023.31
2022-12-11T17:28:57.608Z,99026.66
2022-12-11T17:31:24.450Z,99028.69
2022-12-11T17:33:51.176Z,99026.97
2022-12-11T17:36:20.621Z,99023.31
2022-12-11T17:38:49.490Z,99026.84
2022-12-11T17:41:20.518Z,99029.72
2022-12-11T17:43:49.244Z,99027.47
2022-12-11T17:46:16.437Z,99021.88
2022-12-11T17:48:43.415Z,99018.25
2022-12-11T17:51:13.388Z,99022.06
2022-12-11T17:53:40.145Z,99021.59
2022-12-11T17:56:08.767Z,99032.03
2022-12-11T17:58:35.480Z,99032.63
2022-12-11T18:01:07.206Z,99021.97
2022-12-11T18:03:33.909Z,99028.59
2022-12-11T18:06:04.881Z,99038.84
2022-12-11T18:08:31.552Z,99036.97
2022-12-11T18:11:08.253Z,99038.44
2022-12-11T18:13:35.252Z,99043.97
2022-12-11T18:16:04.296Z,99048.06
2022-12-11T18:18:31.331Z,99043.72
2022-12-11T18:20:58.000Z,99044.66
2022-12-11T18:23:24.720Z,99042.25
2022-12-11T18:25:51.981Z,99056.84
2022-12-11T18:28:19.066Z,99058.31
2022-12-11T18:30:45.835Z,99057.88
2022-12-11T18:33:13.208Z,99055.66
2022-12-11T18:35:41.322Z,99059.31
2022-12-11T18:38:08.357Z,99058.19
2022-12-11T18:40:35.045Z,99064.22
2022-12-11T18:43:01.678Z,99066.94
2022-12-11T18:45:28.306Z,99082.31
2022-12-11T18:47:56.637Z,99077.19
2022-12-11T18:50:23.631Z,99081.00
2022-12-11T18:52:55.058Z,99071.63
2022-12-11T18:55:21.802Z,99079.13
2022-12-11T18:57:48.619Z,99078.84
2022-12-11T19:00:15.804Z,99083.75
2022-12-11T19:02:42.595Z,99094.53
2022-12-11T19:05:10.237Z,99087.66
2022-12-11T19:07:37.121Z,99092.44
2022-12-11T19:10:05.044Z,99099.84
2022-12-11T19:12:31.630Z,99102.41
2022-12-11T19:14:58.217Z,99104.91
2022-12-11T19:17:24.761Z,99108.13
2022-12-11T19:19:51.377Z,99094.87
2022-12-11T19:22:17.970Z,99093.44
2022-12-11T19:24:44.579Z,99089.94
2022-12-11T19:27:13.717Z,99097.44
2022-12-11T19:29:41.299Z,99099.84
2022-12-11T19:32:10.409Z,99102.41
2022-12-11T19:34:38.567Z,99103.34
2022-12-11T19:37:05.299Z,99095.06
2022-12-11T19:39:31.943Z,99101.25
2022-12-11T19:42:00.745Z,99109.13
2022-12-11T19:44:27.490Z,99104.03
2022-12-11T19:46:54.112Z,99107.69
2022-12-11T19:49:21.521Z,99108.66
2022-12-11T19:51:48.422Z,99115.38
2022-12-11T19:54:16.700Z,99126.44
2022-12-11T19:56:44.215Z,99117.81
2022-12-11T19:59:15.722Z,99126.25
2022-12-11T20:01:49.787Z,99128.34
2022-12-11T20:04:17.285Z,99121.62
2022-12-11T20:06:46.381Z,99129.78
2022-12-11T20:09:14.053Z,99124.34
2022-12-11T20:11:43.005Z,99118.16
2022-12-11T20:14:15.426Z,99126.00
2022-12-11T20:17:09.757Z,99124.06
2022-12-11T20:19:31.706Z,99124.69
2022-12-11T20:21:58.341Z,99130.47
2022-12-11T20:24:24.915Z,99132.41
2022-12-11T20:26:57.229Z,99137.84
2022-12-11T20:29:24.095Z,99135.16
2022-12-11T20:31:51.391Z,99140.28
2022-12-11T20:34:18.201Z,99141.59
2022-12-11T20:36:44.857Z,99134.56
2022-12-11T20:39:11.396Z,99141.81
2022-12-11T20:41:37.994Z,99136.22
2022-12-11T20:44:04.596Z,99137.50
2022-12-11T20:46:31.210Z,99136.38
2022-12-11T20:48:58.864Z,99133.34
2022-12-11T20:51:26.602Z,99143.25
2022-12-11T20:53:59.081Z,99141.97
2022-12-11T20:56:28.657Z,99140.84
2022-12-11T20:58:55.636Z,99142.91
2022-12-11T21:01:24.423Z,99144.50
2022-12-11T21:03:53.655Z,99160.84
2022-12-11T21:06:42.233Z,99163.09
2022-12-11T21:09:19.688Z,99173.62
2022-12-11T21:11:46.285Z,99171.84
2022-12-11T21:14:13.858Z,99166.91
2022-12-11T21:16:40.727Z,99167.72
2022-12-11T21:19:10.222Z,99166.28
2022-12-11T21:21:41.970Z,99175.06
2022-12-11T21:24:14.897Z,99179.06
2022-12-11T21:26:41.501Z,99171.88
2022-12-11T21:29:08.079Z,99180.34
2022-12-11T21:31:34.682Z,99188.03
2022-12-11T21:34:01.253Z,99181.47
2022-12-11T21:36:28.467Z,99186.59
2022-12-11T21:38:54.993Z,99190.88
2022-12-11T21:41:24.147Z,99183.22
2022-12-11T21:46:46.045Z,99186.72
2022-12-11T21:49:12.697Z,99198.53
2022-12-11T21:51:46.795Z,99202.88
2022-12-11T21:54:16.862Z,99201.25
2022-12-11T21:56:44.249Z,99211.47
2022-12-11T21:59:10.903Z,99203.31
2022-12-11T22:01:45.815Z,99215.44
2022-12-11T22:04:13.697Z,99211.78
2022-12-11T22:06:42.874Z,99201.41
2022-12-11T22:09:12.402Z,99212.28
2022-12-11T22:11:39.595Z,99213.72
2022-12-11T22:14:06.963Z,99216.44
2022-12-11T22:16:34.869Z,99216.25
2022-12-11T22:19:01.527Z,99220.56
2022-12-11T22:21:28.385Z,99216.41
2022-12-11T22:23:55.172Z,99208.75
2022-12-11T22:26:25.766Z,99222.00
2022-12-11T22:28:52.567Z,99210.50
2022-12-11T22:31:21.335Z,99201.41
2022-12-11T22:33:53.753Z,99201.88
2022-12-11T22:36:21.589Z,99198.69
2022-12-11T22:38:48.230Z,99209.50
2022-12-11T22:41:27.099Z,99209.81
2022-12-11T22:43:54.502Z,99212.22
2022-12-11T22:46:23.871Z,99210.94
2022-12-11T22:48:51.351Z,99222.25
2022-12-11T22:51:18.219Z,99220.50
2022-12-11T22:53:44.834Z,99221.13
2022-12-11T22:56:12.913Z,99234.53
2022-12-11T22:58:40.105Z,99228.47
2022-12-11T23:01:15.734Z,99213.94
2022-12-11T23:03:42.635Z,99228.72
2022-12-11T23:06:11.874Z,99228.09
2022-12-11T23:08:40.144Z,99228.72
2022-12-11T23:11:12.567Z,99237.03
2022-12-11T23:13:39.167Z,99237.38
2022-12-11T23:16:05.916Z,99238.47
2022-12-11T23:18:32.912Z,99232.88
2022-12-11T23:20:59.531Z,99223.63
2022-12-11T23:23:26.114Z,99231.41
2022-12-11T23:25:53.228Z,99247.09
2022-12-11T23:28:20.023Z,99253.59
2022-12-11T23:30:47.115Z,99256.47
2022-12-11T23:33:13.821Z,99249.75
2022-12-11T23:35:40.412Z,99239.69
2022-12-11T23:38:07.163Z,99238.25
2022-12-11T23:40:34.138Z,99236.03
2022-12-11T23:43:01.256Z,99240.97
2022-12-11T23:45:27.862Z,99238.22
2022-12-11T23:47:54.513Z,99248.25
2022-12-11T23:50:21.089Z,99240.75
2022-12-11T23:52:47.651Z,99245.19
2022-12-11T23:55:14.529Z,99240.28
2022-12-11T23:57:41.420Z,99231.00
